Dawn Merchant — MYIL6 — position and weather

sailwx.info

Track history (hours):
 
Tides and Currents Weather Stations Pressure Air Temp Water Temp Dewpoint Dewpoint Depression Visibility Wind Speed Wind Dir Waves Ship Positions

Dawn Merchant

Operator: Norfolk Line

Last reported at 2019-Oct-17 07:30 UTC. Time now 2019-Oct-17 07:40 UTC.
Position S 41°17' E 174°00'.

Length 180 m; draft 5.8 m.

Type: Passenger vessel. MMSI: 232197000.

Date/timePositionNaut miles runAvg speedWind from/ knotsBaromVisibWave heightAir tempDewpointWater temp
2019-Oct-17 07:30S 41°17' E 174°00'5 9.6
2019-Oct-17 07:01S 41°14' E 174°05'714.0
2019-Oct-17 06:30S 41°10' E 174°13'714.9
2019-Oct-17 06:00S 41°05' E 174°20'714.7
2019-Oct-17 05:31S 41°07' E 174°29'917.0
2019-Oct-17 05:01S 41°15' E 174°33'917.2
2019-Oct-17 04:31S 41°22' E 174°39'918.3
2019-Oct-17 04:00S 41°20' E 174°51'5 8.6
2019-Oct-17 03:28S 41°16' E 174°47'0 0.0
2019-Oct-17 02:55S 41°16' E 174°47'0 0.0
2019-Oct-17 02:28S 41°16' E 174°47'0 0.0
2019-Oct-17 01:58S 41°16' E 174°47'0 0.0
2019-Oct-17 01:28S 41°16' E 174°47'0 0.0
2019-Oct-17 00:55S 41°16' E 174°47'0 0.0
2019-Oct-17 00:28S 41°16' E 174°47'0 0.0
2019-Oct-16 23:58S 41°16' E 174°47'0 0.1
2019-Oct-16 23:30S 41°16' E 174°47'510.1
2019-Oct-16 23:00S 41°20' E 174°51'816.7
2019-Oct-16 22:30S 41°23' E 174°41'1019.0
2019-Oct-16 22:00S 41°15' E 174°33'1121.1
2019-Oct-16 21:30S 41°05' E 174°28'917.3
2019-Oct-16 21:00S 41°06' E 174°17'815.4
2019-Oct-16 20:30S 41°13' E 174°11'713.8
2019-Oct-16 20:01S 41°15' E 174°02'2 4.5
2019-Oct-16 19:28S 41°17' E 174°00'0 0.0
2019-Oct-16 18:58S 41°17' E 174°00'0 0.0
2019-Oct-16 18:28S 41°17' E 174°00'0 0.5
2019-Oct-16 18:01S 41°17' E 174°00'713.2
2019-Oct-16 17:30S 41°13' E 174°08'714.1
2019-Oct-16 17:00S 41°08' E 174°14'815.6
2019-Oct-16 16:31S 41°04' E 174°23'815.7
2019-Oct-16 16:01S 41°09' E 174°30'816.6
2019-Oct-16 15:30S 41°17' E 174°34'815.2
2019-Oct-16 15:01S 41°23' E 174°41'816.2
2019-Oct-16 14:30S 41°19' E 174°51'4 8.8
2019-Oct-16 14:00S 41°16' E 174°47'0 0.0
2019-Oct-16 13:30S 41°16' E 174°47'0 0.0
2019-Oct-16 13:00S 41°16' E 174°47'0 0.0
2019-Oct-16 12:30S 41°16' E 174°47'1 1.6
2019-Oct-16 12:00S 41°16' E 174°48'713.8
2019-Oct-16 11:30S 41°23' E 174°50'918.0
2019-Oct-16 11:00S 41°23' E 174°38'918.4
2019-Oct-16 10:30S 41°18' E 174°27'816.9
2019-Oct-16 10:00S 41°13' E 174°18'713.9
2019-Oct-16 09:31S 41°15' E 174°10'612.2
2019-Oct-16 09:00S 41°16' E 174°02'2 3.1
2019-Oct-16 08:30S 41°17' E 174°00'0 0.0
2019-Oct-16 08:00S 41°17' E 174°00'0 0.0
2019-Oct-16 07:30S 41°17' E 174°00'0 0.3
2019-Oct-16 07:00S 41°17' E 174°01'611.5
2019-Oct-16 06:31S 41°14' E 174°07'713.4
2019-Oct-16 06:01S 41°14' E 174°16'713.7
2019-Oct-16 05:31S 41°16' E 174°25'816.0
2019-Oct-16 05:00S 41°20' E 174°34'816.1
2019-Oct-16 04:30S 41°23' E 174°44'713.8
2019-Oct-16 04:01S 41°19' E 174°51'4 7.9
2019-Oct-16 03:29S 41°16' E 174°47'0 0.0
2019-Oct-16 02:59S 41°16' E 174°47'0 0.0
2019-Oct-16 02:29S 41°16' E 174°47'0 0.0
2019-Oct-16 01:59S 41°16' E 174°47'0 0.0
2019-Oct-16 01:29S 41°16' E 174°47'0 0.0
2019-Oct-16 00:59S 41°16' E 174°47'0 0.0
2019-Oct-16 00:29S 41°16' E 174°47'0 0.0
2019-Oct-15 23:59S 41°16' E 174°47'0 0.0
2019-Oct-15 23:29S 41°16' E 174°47'3 6.3
2019-Oct-15 23:01S 41°17' E 174°51'714.7
2019-Oct-15 22:31S 41°23' E 174°47'815.8
2019-Oct-15 22:01S 41°22' E 174°37'815.5
2019-Oct-15 21:31S 41°18' E 174°28'816.0
2019-Oct-15 21:01S 41°13' E 174°20'713.2
2019-Oct-15 20:31S 41°15' E 174°11'612.7
2019-Oct-15 20:01S 41°15' E 174°03'3 5.0
2019-Oct-15 19:28S 41°17' E 174°00'0 0.0
2019-Oct-15 18:58S 41°17' E 174°00'0 0.0
2019-Oct-15 18:28S 41°17' E 174°00'0 0.0
2019-Oct-15 17:59S 41°17' E 174°00'1 2.4
2019-Oct-15 17:30S 41°16' E 174°01'713.1
2019-Oct-15 17:00S 41°14' E 174°09'713.2
2019-Oct-15 16:31S 41°13' E 174°18'917.9
2019-Oct-15 16:00S 41°17' E 174°28'917.4
2019-Oct-15 15:30S 41°22' E 174°38'917.2
2019-Oct-15 15:00S 41°22' E 174°50'611.9
2019-Oct-15 14:30S 41°16' E 174°47'0 0.2
2019-Oct-15 13:58S 41°16' E 174°47'0 0.0
2019-Oct-15 13:28S 41°16' E 174°47'0 0.0
2019-Oct-15 12:58S 41°16' E 174°47'0 0.1
2019-Oct-15 12:30S 41°16' E 174°47'5 9.0
2019-Oct-15 12:00S 41°19' E 174°51'714.2
2019-Oct-15 11:30S 41°23' E 174°43'917.7
2019-Oct-15 11:00S 41°20' E 174°33'816.4
2019-Oct-15 10:30S 41°16' E 174°23'713.3
2019-Oct-15 10:00S 41°14' E 174°15'713.0
2019-Oct-15 09:30S 41°14' E 174°06'510.2
2019-Oct-15 09:00S 41°17' E 174°00'0 0.0
2019-Oct-15 08:28S 41°17' E 174°00'0 0.0
2019-Oct-15 08:01S 41°17' E 174°00'0 0.0
2019-Oct-15 07:31S 41°17' E 174°00'0 0.1
2019-Oct-15 07:00S 41°17' E 174°00'3 6.2
2019-Oct-15 06:30S 41°15' E 174°03'713.5
2019-Oct-15 06:00S 41°14' E 174°12'815.1
2019-Oct-15 05:30S 41°14' E 174°22'1019.3
2019-Oct-15 05:00S 41°20' E 174°33'1019.4
2019-Oct-15 04:31S 41°23' E 174°45'713.8
2019-Oct-15 04:01S 41°17' E 174°50'2 4.4
2019-Oct-15 03:29S 41°16' E 174°47'0 0.0
2019-Oct-15 02:59S 41°16' E 174°47'0 0.0
2019-Oct-15 02:29S 41°16' E 174°47'0 0.0
2019-Oct-15 01:59S 41°16' E 174°47'0 0.0
2019-Oct-15 01:29S 41°16' E 174°47'0 0.0
2019-Oct-15 00:59S 41°16' E 174°47'0 0.0
2019-Oct-15 00:29S 41°16' E 174°47'0 0.0
2019-Oct-14 23:59S 41°16' E 174°47'0 0.0
2019-Oct-14 23:29S 41°16' E 174°47'1 1.5
2019-Oct-14 23:00S 41°16' E 174°48'612.3
2019-Oct-14 22:30S 41°22' E 174°50'815.6
2019-Oct-14 22:00S 41°23' E 174°40'816.1
2019-Oct-14 21:30S 41°19' E 174°31'816.1
2019-Oct-14 21:00S 41°15' E 174°22'611.6
2019-Oct-14 20:31S 41°15' E 174°14'612.5
2019-Oct-14 20:00S 41°14' E 174°06'5 9.0
2019-Oct-14 19:28S 41°17' E 174°00'0 0.0
2019-Oct-14 18:58S 41°17' E 174°00'0 0.0
2019-Oct-14 18:28S 41°17' E 174°00'0 0.0
2019-Oct-14 18:01S 41°17' E 174°00'1 2.8
2019-Oct-14 17:31S 41°16' E 174°01'612.7
2019-Oct-14 17:01S 41°13' E 174°09'611.6
2019-Oct-14 16:30S 41°13' E 174°17'713.3
2019-Oct-14 16:00S 41°16' E 174°25'713.8
2019-Oct-14 15:31S 41°20' E 174°33'713.6
2019-Oct-14 15:00S 41°23' E 174°41'714.4
2019-Oct-14 14:30S 41°21' E 174°50'611.2
2019-Oct-14 14:00S 41°16' E 174°47'0 0.4
2019-Oct-14 13:30S 41°16' E 174°47'0 0.0
2019-Oct-14 13:00S 41°16' E 174°47'0 0.0
2019-Oct-14 12:30S 41°16' E 174°47'0 0.0
2019-Oct-14 12:00S 41°16' E 174°47'0 0.0
2019-Oct-14 11:30S 41°16' E 174°47'0 0.0
2019-Oct-14 11:00S 41°16' E 174°47'0 0.0
2019-Oct-14 10:30S 41°16' E 174°47'0 0.0
2019-Oct-14 10:00S 41°16' E 174°47'0 0.0
2019-Oct-14 09:30S 41°16' E 174°47'0 0.0
2019-Oct-14 09:00S 41°16' E 174°47'0 0.0
2019-Oct-14 08:30S 41°16' E 174°47'0 0.0
2019-Oct-14 08:00S 41°16' E 174°47'0 0.2
2019-Oct-14 07:28S 41°16' E 174°47'0 0.0
2019-Oct-14 06:58S 41°16' E 174°47'0 0.0
2019-Oct-14 06:25S 41°16' E 174°47'0 0.0
2019-Oct-14 05:58S 41°16' E 174°47'0 0.0
2019-Oct-14 05:28S 41°16' E 174°47'0 0.0
2019-Oct-14 04:58S 41°16' E 174°47'0 0.0
2019-Oct-14 04:28S 41°16' E 174°47'0 0.0
2019-Oct-14 03:58S 41°16' E 174°47'0 0.0
2019-Oct-14 03:28S 41°16' E 174°47'0 0.0
2019-Oct-14 02:58S 41°16' E 174°47'0 0.0
2019-Oct-14 02:28S 41°16' E 174°47'0 0.0
2019-Oct-14 01:55S 41°16' E 174°47'0 0.0
2019-Oct-14 01:25S 41°16' E 174°47'0 0.0
2019-Oct-14 00:58S 41°16' E 174°47'0 0.0
2019-Oct-14 00:25S 41°16' E 174°47'0 0.0
2019-Oct-13 23:58S 41°16' E 174°47'0 0.0
2019-Oct-13 23:25S 41°16' E 174°47'0 0.0
2019-Oct-13 22:55S 41°16' E 174°47'0 0.0
2019-Oct-13 22:25S 41°16' E 174°47'0 0.0
2019-Oct-13 21:55S 41°16' E 174°47'0 0.0
2019-Oct-13 21:25S 41°16' E 174°47'0 0.0
2019-Oct-13 20:55S 41°16' E 174°47'0 0.0
2019-Oct-13 20:28S 41°16' E 174°47'0 0.0
2019-Oct-13 19:58S 41°16' E 174°47'0 0.0
2019-Oct-13 19:28S 41°16' E 174°47'0 0.0
2019-Oct-13 19:01S 41°16' E 174°47'0 0.0
2019-Oct-13 18:31S 41°16' E 174°47'0 0.0
2019-Oct-13 18:00S 41°16' E 174°47'0 0.0
2019-Oct-13 17:31S 41°16' E 174°47'0 0.0
2019-Oct-13 17:00S 41°16' E 174°47'0 0.1
2019-Oct-13 16:30S 41°16' E 174°47'0 0.3
2019-Oct-13 16:00S 41°16' E 174°47'0 0.0
2019-Oct-13 15:30S 41°16' E 174°47'0 0.2
2019-Oct-13 15:00S 41°16' E 174°47'4 8.2
2019-Oct-13 14:30S 41°19' E 174°51'611.2
2019-Oct-13 14:00S 41°24' E 174°47'713.8
2019-Oct-13 13:30S 41°23' E 174°38'815.5
2019-Oct-13 13:00S 41°19' E 174°29'714.4
2019-Oct-13 12:30S 41°15' E 174°21'713.5
2019-Oct-13 12:00S 41°14' E 174°12'713.6
2019-Oct-13 11:30S 41°15' E 174°03'3 6.0
2019-Oct-13 10:59S 41°17' E 174°00'0 0.0
2019-Oct-13 10:29S 41°17' E 174°00'0 0.5
2019-Oct-13 10:00S 41°17' E 174°00'713.2
2019-Oct-13 09:30S 41°14' E 174°08'612.2
2019-Oct-13 09:00S 41°14' E 174°16'714.4
2019-Oct-13 08:30S 41°16' E 174°25'917.7
2019-Oct-13 08:00S 41°21' E 174°35'917.9
2019-Oct-13 07:30S 41°22' E 174°47'612.6
2019-Oct-13 07:00S 41°16' E 174°49'2 2.7
2019-Oct-13 06:26S 41°16' E 174°47'0 0.0
2019-Oct-13 05:59S 41°16' E 174°47'1 1.8
2019-Oct-13 05:31S 41°16' E 174°48'2 3.0
2019-Oct-13 05:01S 41°16' E 174°50'0 0.9
2019-Oct-13 04:30S 41°16' E 174°49'2 3.0
2019-Oct-13 03:58S 41°16' E 174°47'0 0.0
2019-Oct-13 03:28S 41°16' E 174°47'0 0.0
2019-Oct-13 02:55S 41°16' E 174°47'0 0.0
2019-Oct-13 02:25S 41°16' E 174°47'0 0.0
2019-Oct-13 01:55S 41°16' E 174°47'0 0.0
2019-Oct-13 01:28S 41°16' E 174°47'0 0.0
2019-Oct-13 00:55S 41°16' E 174°47'0 0.0
2019-Oct-13 00:28S 41°16' E 174°47'0 0.0
2019-Oct-12 23:58S 41°16' E 174°47'0 0.0
2019-Oct-12 23:22S 41°16' E 174°47'0 0.0
2019-Oct-12 22:58S 41°16' E 174°47'0 0.0
2019-Oct-12 22:28S 41°16' E 174°47'0 0.0
2019-Oct-12 21:58S 41°16' E 174°47'0 0.0
2019-Oct-12 21:25S 41°16' E 174°47'0 0.0
2019-Oct-12 20:55S 41°16' E 174°47'0 0.0
2019-Oct-12 20:30S 41°16' E 174°47'2 3.6
2019-Oct-12 20:00S 41°16' E 174°50'0 0.3
2019-Oct-12 19:29S 41°16' E 174°50'0 0.0
2019-Oct-12 18:59S 41°16' E 174°50'0 0.0
2019-Oct-12 18:29S 41°16' E 174°50'0 0.0
2019-Oct-12 17:59S 41°16' E 174°50'0 0.0
2019-Oct-12 17:29S 41°16' E 174°50'0 0.0
2019-Oct-12 16:59S 41°16' E 174°50'0 0.0
2019-Oct-12 16:29S 41°16' E 174°50'0 0.0
2019-Oct-12 15:59S 41°16' E 174°50'0 0.0
2019-Oct-12 15:29S 41°16' E 174°50'0 0.0
2019-Oct-12 15:00S 41°16' E 174°50'0 0.0
2019-Oct-12 14:30S 41°16' E 174°50'2 3.6
2019-Oct-12 14:01S 41°16' E 174°47'0 0.3
2019-Oct-12 13:28S 41°16' E 174°47'0 0.0
2019-Oct-12 12:58S 41°16' E 174°47'0 0.1
2019-Oct-12 12:30S 41°16' E 174°47'4 8.9
2019-Oct-12 12:00S 41°19' E 174°51'612.9
2019-Oct-12 11:30S 41°23' E 174°45'917.0
2019-Oct-12 11:00S 41°21' E 174°34'816.2
2019-Oct-12 10:30S 41°16' E 174°25'713.7
2019-Oct-12 10:00S 41°14' E 174°16'713.5
2019-Oct-12 09:30S 41°14' E 174°07'612.3
2019-Oct-12 09:00S 41°17' E 174°00'0 0.0
2019-Oct-12 08:30S 41°17' E 174°00'0 0.0
2019-Oct-12 08:00S 41°17' E 174°00'0 0.0
2019-Oct-12 07:30S 41°17' E 174°00'0 0.2
2019-Oct-12 07:00S 41°17' E 174°00'510.5
2019-Oct-12 06:30S 41°14' E 174°06'713.6
2019-Oct-12 06:01S 41°14' E 174°15'713.7
2019-Oct-12 05:30S 41°15' E 174°24'917.1
2019-Oct-12 05:00S 41°20' E 174°34'917.9
2019-Oct-12 04:30S 41°23' E 174°45'713.3
2019-Oct-12 04:00S 41°18' E 174°51'3 6.5
2019-Oct-12 03:30S 41°16' E 174°47'0 0.0
2019-Oct-12 02:58S 41°16' E 174°47'0 0.0
2019-Oct-12 02:28S 41°16' E 174°47'0 0.0
2019-Oct-12 01:58S 41°16' E 174°47'0 0.0
2019-Oct-12 01:28S 41°16' E 174°47'0 0.0
2019-Oct-12 00:58S 41°16' E 174°47'0 0.0
2019-Oct-12 00:28S 41°16' E 174°47'0 0.0
2019-Oct-11 23:55S 41°16' E 174°47'0 0.0
2019-Oct-11 23:31S 41°16' E 174°47'4 7.3
2019-Oct-11 23:01S 41°18' E 174°51'713.2
2019-Oct-11 22:31S 41°24' E 174°47'816.6
2019-Oct-11 22:00S 41°22' E 174°36'816.2
2019-Oct-11 21:31S 41°17' E 174°27'815.5
2019-Oct-11 21:01S 41°13' E 174°19'815.1
2019-Oct-11 20:30S 41°15' E 174°09'612.4
2019-Oct-11 20:00S 41°16' E 174°01'1 2.3
2019-Oct-11 19:30S 41°17' E 174°00'0 0.0
2019-Oct-11 19:00S 41°17' E 174°00'0 0.0
2019-Oct-11 18:30S 41°17' E 174°00'0 0.0
2019-Oct-11 18:00S 41°17' E 174°00'0 0.8
2019-Oct-11 17:31S 41°17' E 174°01'713.3
2019-Oct-11 17:00S 41°14' E 174°08'713.3
2019-Oct-11 16:30S 41°13' E 174°17'816.0
2019-Oct-11 16:00S 41°17' E 174°27'917.3
2019-Oct-11 15:30S 41°21' E 174°36'917.4
2019-Oct-11 15:00S 41°22' E 174°48'612.1
2019-Oct-11 14:30S 41°16' E 174°48'1 1.8
2019-Oct-11 13:58S 41°16' E 174°47'0 0.0
2019-Oct-11 13:28S 41°16' E 174°47'0 0.0
2019-Oct-11 12:58S 41°16' E 174°47'0 0.0
2019-Oct-11 12:31S 41°16' E 174°47'2 4.9
2019-Oct-11 12:00S 41°16' E 174°50'714.3
2019-Oct-11 11:31S 41°23' E 174°49'917.6
2019-Oct-11 11:00S 41°23' E 174°37'917.9
2019-Oct-11 10:30S 41°18' E 174°27'816.5
2019-Oct-11 10:01S 41°13' E 174°19'815.2
2019-Oct-11 09:30S 41°14' E 174°09'612.8
2019-Oct-11 09:00S 41°16' E 174°01'1 1.8
2019-Oct-11 08:28S 41°17' E 174°00'0 0.0
2019-Oct-11 07:58S 41°17' E 174°00'0 0.0
2019-Oct-11 07:28S 41°17' E 174°00'0 0.2
2019-Oct-11 07:00S 41°17' E 174°00'510.1
2019-Oct-11 06:31S 41°14' E 174°06'713.8
2019-Oct-11 06:01S 41°14' E 174°15'713.7
2019-Oct-11 05:30S 41°15' E 174°24'816.6
2019-Oct-11 05:00S 41°20' E 174°33'917.8
2019-Oct-11 04:31S 41°23' E 174°45'713.9
2019-Oct-11 04:00S 41°18' E 174°51'3 6.1
2019-Oct-11 03:28S 41°16' E 174°47'0 0.0
2019-Oct-11 02:58S 41°16' E 174°47'0 0.0
2019-Oct-11 02:28S 41°16' E 174°47'0 0.0
2019-Oct-11 01:58S 41°16' E 174°47'0 0.0
2019-Oct-11 01:28S 41°16' E 174°47'0 0.0
2019-Oct-11 00:58S 41°16' E 174°47'0 0.0
2019-Oct-11 00:28S 41°16' E 174°47'0 0.0
2019-Oct-10 23:58S 41°16' E 174°47'0 0.0
2019-Oct-10 23:28S 41°16' E 174°47'2 4.3
2019-Oct-10 23:01S 41°16' E 174°50'714.4
2019-Oct-10 22:30S 41°23' E 174°50'917.8
2019-Oct-10 22:00S 41°22' E 174°38'918.2
2019-Oct-10 21:30S 41°18' E 174°27'816.5
2019-Oct-10 21:01S 41°13' E 174°19'815.0
2019-Oct-10 20:30S 41°14' E 174°09'612.6
2019-Oct-10 20:00S 41°16' E 174°01'1 1.9
2019-Oct-10 19:30S 41°17' E 174°00'0 0.0
2019-Oct-10 19:00S 41°17' E 174°00'0 0.0
2019-Oct-10 18:30S 41°17' E 174°00'0 0.0
2019-Oct-10 18:00S 41°17' E 174°00'2 5.0
2019-Oct-10 17:30S 41°15' E 174°02'612.7
2019-Oct-10 17:00S 41°15' E 174°11'714.8
2019-Oct-10 16:30S 41°13' E 174°20'816.9
2019-Oct-10 16:00S 41°18' E 174°30'917.9
2019-Oct-10 15:30S 41°22' E 174°40'816.3
2019-Oct-10 15:00S 41°21' E 174°51'510.8
2019-Oct-10 14:30S 41°16' E 174°47'0 0.1
2019-Oct-10 13:59S 41°16' E 174°47'0 0.0
2019-Oct-10 13:29S 41°16' E 174°47'0 0.0
2019-Oct-10 12:59S 41°16' E 174°47'0 0.4
2019-Oct-10 12:31S 41°16' E 174°47'611.3
2019-Oct-10 12:00S 41°21' E 174°51'816.1
2019-Oct-10 11:30S 41°23' E 174°40'1121.2
2019-Oct-10 11:00S 41°14' E 174°32'1020.3
2019-Oct-10 10:30S 41°05' E 174°27'917.1
2019-Oct-10 10:00S 41°07' E 174°16'714.9
2019-Oct-10 09:30S 41°13' E 174°10'714.6
2019-Oct-10 09:01S 41°16' E 174°01'1 2.3
2019-Oct-10 08:29S 41°17' E 174°00'0 0.0
2019-Oct-10 07:59S 41°17' E 174°00'0 0.0
2019-Oct-10 07:29S 41°17' E 174°00'0 0.3
2019-Oct-10 07:00S 41°17' E 174°01'510.5
2019-Oct-10 06:31S 41°14' E 174°06'713.1
2019-Oct-10 06:01S 41°14' E 174°15'713.1
2019-Oct-10 05:31S 41°15' E 174°24'816.2
2019-Oct-10 05:01S 41°19' E 174°33'917.5
2019-Oct-10 04:31S 41°23' E 174°43'714.3
2019-Oct-10 04:01S 41°19' E 174°51'4 8.0
2019-Oct-10 03:30S 41°16' E 174°47'0 0.0
2019-Oct-10 03:00S 41°16' E 174°47'0 0.0
2019-Oct-10 02:30S 41°16' E 174°47'0 0.0
2019-Oct-10 02:00S 41°16' E 174°47'0 0.0
2019-Oct-10 01:27S 41°16' E 174°47'0 0.0
2019-Oct-10 01:00S 41°16' E 174°47'0 0.0
2019-Oct-10 00:30S 41°16' E 174°47'0 0.0
2019-Oct-10 00:00S 41°16' E 174°47'0 0.0
2019-Oct-09 23:30S 41°16' E 174°47'2 4.6
2019-Oct-09 23:00S 41°16' E 174°50'713.7
2019-Oct-09 22:30S 41°23' E 174°50'816.0
2019-Oct-09 22:00S 41°23' E 174°39'816.7
2019-Oct-09 21:30S 41°19' E 174°29'815.5
2019-Oct-09 21:00S 41°14' E 174°21'714.2
2019-Oct-09 20:30S 41°15' E 174°12'713.7
2019-Oct-09 20:00S 41°15' E 174°03'3 4.9
2019-Oct-09 19:28S 41°17' E 174°00'0 0.0
2019-Oct-09 18:58S 41°17' E 174°00'0 0.0
2019-Oct-09 18:28S 41°17' E 174°00'0 0.0
2019-Oct-09 18:01S 41°17' E 174°00'3 5.2
2019-Oct-09 17:31S 41°15' E 174°02'612.7
2019-Oct-09 17:00S 41°15' E 174°11'714.9
2019-Oct-09 16:30S 41°14' E 174°21'918.6
2019-Oct-09 16:00S 41°18' E 174°31'1019.0
2019-Oct-09 15:30S 41°23' E 174°42'815.8
2019-Oct-09 15:00S 41°18' E 174°51'4 7.1
2019-Oct-09 14:28S 41°16' E 174°47'0 0.0
2019-Oct-09 13:58S 41°16' E 174°47'0 0.0
2019-Oct-09 13:28S 41°16' E 174°47'0 0.0
2019-Oct-09 12:59S 41°16' E 174°47'1 3.1
2019-Oct-09 12:31S 41°16' E 174°49'714.5
2019-Oct-09 12:01S 41°23' E 174°48'918.8
2019-Oct-09 11:31S 41°21' E 174°36'1121.1
2019-Oct-09 11:01S 41°11' E 174°31'918.6
2019-Oct-09 10:31S 41°04' E 174°23'917.2
2019-Oct-09 10:01S 41°09' E 174°14'714.1
2019-Oct-09 09:31S 41°14' E 174°07'611.8
2019-Oct-09 09:00S 41°17' E 174°00'0 0.0
2019-Oct-09 08:30S 41°17' E 174°00'0 0.0
2019-Oct-09 07:59S 41°17' E 174°00'0 0.0
2019-Oct-09 07:30S 41°17' E 174°00'5 9.1
2019-Oct-09 07:00S 41°14' E 174°05'714.7
2019-Oct-09 06:30S 41°10' E 174°13'815.5
2019-Oct-09 06:00S 41°04' E 174°20'815.2
2019-Oct-09 05:30S 41°08' E 174°29'918.1
2019-Oct-09 05:00S 41°16' E 174°34'917.8
2019-Oct-09 04:30S 41°23' E 174°42'815.9
2019-Oct-09 04:00S 41°19' E 174°51'4 8.4
2019-Oct-09 03:30S 41°16' E 174°47'0 0.0
2019-Oct-09 03:00S 41°16' E 174°47'0 0.0
2019-Oct-09 02:30S 41°16' E 174°47'0 0.0
2019-Oct-09 02:00S 41°16' E 174°47'0 0.0
2019-Oct-09 01:30S 41°16' E 174°47'0 0.0
2019-Oct-09 01:00S 41°16' E 174°47'0 0.0
2019-Oct-09 00:30S 41°16' E 174°47'0 0.0
2019-Oct-09 00:00S 41°16' E 174°47'0 0.0
2019-Oct-08 23:30S 41°16' E 174°47'0 0.4
2019-Oct-08 23:00S 41°16' E 174°47'611.3
2019-Oct-08 22:30S 41°21' E 174°51'714.6
2019-Oct-08 22:01S 41°23' E 174°41'918.4
2019-Oct-08 21:30S 41°19' E 174°30'917.9
2019-Oct-08 21:00S 41°14' E 174°21'714.9
2019-Oct-08 20:30S 41°15' E 174°11'713.3
2019-Oct-08 20:00S 41°15' E 174°02'2 4.2
2019-Oct-08 19:29S 41°17' E 174°00'0 0.0
2019-Oct-08 18:59S 41°17' E 174°00'0 0.0
2019-Oct-08 18:29S 41°17' E 174°00'0 0.0
2019-Oct-08 18:00S 41°17' E 174°00'3 5.4
2019-Oct-08 17:31S 41°15' E 174°02'612.4
2019-Oct-08 17:01S 41°15' E 174°11'714.3
2019-Oct-08 16:31S 41°13' E 174°20'816.2
2019-Oct-08 16:00S 41°18' E 174°29'816.3
2019-Oct-08 15:31S 41°22' E 174°38'917.0
2019-Oct-08 15:01S 41°22' E 174°49'612.0
2019-Oct-08 14:31S 41°16' E 174°47'0 0.3
2019-Oct-08 14:00S 41°16' E 174°47'0 0.0
2019-Oct-08 13:30S 41°16' E 174°47'0 0.0
2019-Oct-08 13:00S 41°16' E 174°47'0 0.7
2019-Oct-08 12:31S 41°16' E 174°47'612.2
2019-Oct-08 12:01S 41°22' E 174°50'917.7
2019-Oct-08 11:30S 41°23' E 174°39'1121.2
2019-Oct-08 11:00S 41°13' E 174°32'1019.9
2019-Oct-08 10:31S 41°05' E 174°26'815.9
2019-Oct-08 10:00S 41°07' E 174°16'815.2
2019-Oct-08 09:31S 41°13' E 174°10'714.6
2019-Oct-08 09:00S 41°16' E 174°01'1 1.6
2019-Oct-08 08:30S 41°17' E 174°00'0 0.0
2019-Oct-08 08:00S 41°17' E 174°00'0 0.0
2019-Oct-08 07:30S 41°17' E 174°00'3 5.7
2019-Oct-08 07:00S 41°15' E 174°03'714.9
2019-Oct-08 06:30S 41°12' E 174°12'815.1
2019-Oct-08 06:00S 41°06' E 174°18'815.4
2019-Oct-08 05:31S 41°05' E 174°28'918.2
2019-Oct-08 05:00S 41°14' E 174°32'918.3
2019-Oct-08 04:31S 41°22' E 174°38'918.8
2019-Oct-08 04:00S 41°21' E 174°50'611.4
2019-Oct-08 03:30S 41°16' E 174°47'0 0.0
2019-Oct-08 03:00S 41°16' E 174°47'0 0.0
2019-Oct-08 02:30S 41°16' E 174°47'0 0.0
2019-Oct-08 02:00S 41°16' E 174°47'0 0.0
2019-Oct-08 01:30S 41°16' E 174°47'0 0.0
2019-Oct-08 01:00S 41°16' E 174°47'0 0.0
2019-Oct-08 00:30S 41°16' E 174°47'0 0.0
2019-Oct-08 00:00S 41°16' E 174°47'0 0.0
2019-Oct-07 23:30S 41°16' E 174°47'3 5.8
2019-Oct-07 23:00S 41°17' E 174°51'714.2
2019-Oct-07 22:30S 41°24' E 174°49'815.2
2019-Oct-07 22:00S 41°23' E 174°39'815.9
2019-Oct-07 21:30S 41°19' E 174°29'816.0
2019-Oct-07 21:00S 41°14' E 174°21'714.1
2019-Oct-07 20:30S 41°15' E 174°11'713.6
2019-Oct-07 20:00S 41°15' E 174°02'3 4.8
2019-Oct-07 19:29S 41°17' E 174°00'0 0.0
2019-Oct-07 18:59S 41°17' E 174°00'0 0.0
2019-Oct-07 18:29S 41°17' E 174°00'0 0.0
2019-Oct-07 18:00S 41°17' E 174°00'3 6.1
2019-Oct-07 17:30S 41°15' E 174°03'714.6
2019-Oct-07 17:00S 41°12' E 174°12'714.7
2019-Oct-07 16:30S 41°06' E 174°18'815.2
2019-Oct-07 16:01S 41°05' E 174°28'918.0
2019-Oct-07 15:31S 41°13' E 174°32'918.2
2019-Oct-07 15:01S 41°22' E 174°38'917.8
2019-Oct-07 14:31S 41°22' E 174°49'612.2
2019-Oct-07 14:00S 41°16' E 174°47'0 0.2
2019-Oct-07 13:30S 41°16' E 174°47'0 0.0
2019-Oct-07 13:00S 41°16' E 174°47'0 0.0
2019-Oct-07 12:30S 41°16' E 174°47'0 0.0
2019-Oct-07 12:00S 41°16' E 174°47'0 0.0
2019-Oct-07 11:30S 41°16' E 174°47'0 0.0
2019-Oct-07 11:00S 41°16' E 174°47'0 0.0
2019-Oct-07 10:27S 41°16' E 174°47'0 0.0
2019-Oct-07 10:00S 41°16' E 174°47'0 0.0
2019-Oct-07 09:30S 41°16' E 174°47'0 0.0
2019-Oct-07 09:00S 41°16' E 174°47'0 0.0
2019-Oct-07 08:30S 41°16' E 174°47'0 0.0
2019-Oct-07 08:00S 41°16' E 174°47'  
Track history (hours):
 
Tides and Currents Weather Stations Pressure Air Temp Water Temp Dewpoint Dewpoint Depression Visibility Wind Speed Wind Dir Waves Ship Positions

Dawn Merchant

Operator: Norfolk Line

Last reported at 2019-Oct-17 07:30 UTC. Time now 2019-Oct-17 07:40 UTC.
Position S 41°17' E 174°00'.

Length 180 m; draft 5.8 m.

Type: Passenger vessel. MMSI: 232197000.

Date/timePositionNaut miles runAvg speedWind from/ knotsBaromVisibWave heightAir tempDewpointWater temp
2019-Oct-17 07:30S 41°17' E 174°00'5 9.6
2019-Oct-17 07:01S 41°14' E 174°05'714.0
2019-Oct-17 06:30S 41°10' E 174°13'714.9
2019-Oct-17 06:00S 41°05' E 174°20'714.7
2019-Oct-17 05:31S 41°07' E 174°29'917.0
2019-Oct-17 05:01S 41°15' E 174°33'917.2
2019-Oct-17 04:31S 41°22' E 174°39'918.3
2019-Oct-17 04:00S 41°20' E 174°51'5 8.6
2019-Oct-17 03:28S 41°16' E 174°47'0 0.0
2019-Oct-17 02:55S 41°16' E 174°47'0 0.0
2019-Oct-17 02:28S 41°16' E 174°47'0 0.0
2019-Oct-17 01:58S 41°16' E 174°47'0 0.0
2019-Oct-17 01:28S 41°16' E 174°47'0 0.0
2019-Oct-17 00:55S 41°16' E 174°47'0 0.0
2019-Oct-17 00:28S 41°16' E 174°47'0 0.0
2019-Oct-16 23:58S 41°16' E 174°47'0 0.1
2019-Oct-16 23:30S 41°16' E 174°47'510.1
2019-Oct-16 23:00S 41°20' E 174°51'816.7
2019-Oct-16 22:30S 41°23' E 174°41'1019.0
2019-Oct-16 22:00S 41°15' E 174°33'1121.1
2019-Oct-16 21:30S 41°05' E 174°28'917.3
2019-Oct-16 21:00S 41°06' E 174°17'815.4
2019-Oct-16 20:30S 41°13' E 174°11'713.8
2019-Oct-16 20:01S 41°15' E 174°02'2 4.5
2019-Oct-16 19:28S 41°17' E 174°00'0 0.0
2019-Oct-16 18:58S 41°17' E 174°00'0 0.0
2019-Oct-16 18:28S 41°17' E 174°00'0 0.5
2019-Oct-16 18:01S 41°17' E 174°00'713.2
2019-Oct-16 17:30S 41°13' E 174°08'714.1
2019-Oct-16 17:00S 41°08' E 174°14'815.6
2019-Oct-16 16:31S 41°04' E 174°23'815.7
2019-Oct-16 16:01S 41°09' E 174°30'816.6
2019-Oct-16 15:30S 41°17' E 174°34'815.2
2019-Oct-16 15:01S 41°23' E 174°41'816.2
2019-Oct-16 14:30S 41°19' E 174°51'4 8.8
2019-Oct-16 14:00S 41°16' E 174°47'0 0.0
2019-Oct-16 13:30S 41°16' E 174°47'0 0.0
2019-Oct-16 13:00S 41°16' E 174°47'0 0.0
2019-Oct-16 12:30S 41°16' E 174°47'1 1.6
2019-Oct-16 12:00S 41°16' E 174°48'713.8
2019-Oct-16 11:30S 41°23' E 174°50'918.0
2019-Oct-16 11:00S 41°23' E 174°38'918.4
2019-Oct-16 10:30S 41°18' E 174°27'816.9
2019-Oct-16 10:00S 41°13' E 174°18'713.9
2019-Oct-16 09:31S 41°15' E 174°10'612.2
2019-Oct-16 09:00S 41°16' E 174°02'2 3.1
2019-Oct-16 08:30S 41°17' E 174°00'0 0.0
2019-Oct-16 08:00S 41°17' E 174°00'0 0.0
2019-Oct-16 07:30S 41°17' E 174°00'0 0.3
2019-Oct-16 07:00S 41°17' E 174°01'611.5
2019-Oct-16 06:31S 41°14' E 174°07'713.4
2019-Oct-16 06:01S 41°14' E 174°16'713.7
2019-Oct-16 05:31S 41°16' E 174°25'816.0
2019-Oct-16 05:00S 41°20' E 174°34'816.1
2019-Oct-16 04:30S 41°23' E 174°44'713.8
2019-Oct-16 04:01S 41°19' E 174°51'4 7.9
2019-Oct-16 03:29S 41°16' E 174°47'0 0.0
2019-Oct-16 02:59S 41°16' E 174°47'0 0.0
2019-Oct-16 02:29S 41°16' E 174°47'0 0.0
2019-Oct-16 01:59S 41°16' E 174°47'0 0.0
2019-Oct-16 01:29S 41°16' E 174°47'0 0.0
2019-Oct-16 00:59S 41°16' E 174°47'0 0.0
2019-Oct-16 00:29S 41°16' E 174°47'0 0.0
2019-Oct-15 23:59S 41°16' E 174°47'0 0.0
2019-Oct-15 23:29S 41°16' E 174°47'3 6.3
2019-Oct-15 23:01S 41°17' E 174°51'714.7
2019-Oct-15 22:31S 41°23' E 174°47'815.8
2019-Oct-15 22:01S 41°22' E 174°37'815.5
2019-Oct-15 21:31S 41°18' E 174°28'816.0
2019-Oct-15 21:01S 41°13' E 174°20'713.2
2019-Oct-15 20:31S 41°15' E 174°11'612.7
2019-Oct-15 20:01S 41°15' E 174°03'3 5.0
2019-Oct-15 19:28S 41°17' E 174°00'0 0.0
2019-Oct-15 18:58S 41°17' E 174°00'0 0.0
2019-Oct-15 18:28S 41°17' E 174°00'0 0.0
2019-Oct-15 17:59S 41°17' E 174°00'1 2.4
2019-Oct-15 17:30S 41°16' E 174°01'713.1
2019-Oct-15 17:00S 41°14' E 174°09'713.2
2019-Oct-15 16:31S 41°13' E 174°18'917.9
2019-Oct-15 16:00S 41°17' E 174°28'917.4
2019-Oct-15 15:30S 41°22' E 174°38'917.2
2019-Oct-15 15:00S 41°22' E 174°50'611.9
2019-Oct-15 14:30S 41°16' E 174°47'0 0.2
2019-Oct-15 13:58S 41°16' E 174°47'0 0.0
2019-Oct-15 13:28S 41°16' E 174°47'0 0.0
2019-Oct-15 12:58S 41°16' E 174°47'0 0.1
2019-Oct-15 12:30S 41°16' E 174°47'5 9.0
2019-Oct-15 12:00S 41°19' E 174°51'714.2
2019-Oct-15 11:30S 41°23' E 174°43'917.7
2019-Oct-15 11:00S 41°20' E 174°33'816.4
2019-Oct-15 10:30S 41°16' E 174°23'713.3
2019-Oct-15 10:00S 41°14' E 174°15'713.0
2019-Oct-15 09:30S 41°14' E 174°06'510.2
2019-Oct-15 09:00S 41°17' E 174°00'0 0.0
2019-Oct-15 08:28S 41°17' E 174°00'0 0.0
2019-Oct-15 08:01S 41°17' E 174°00'0 0.0
2019-Oct-15 07:31S 41°17' E 174°00'0 0.1
2019-Oct-15 07:00S 41°17' E 174°00'3 6.2
2019-Oct-15 06:30S 41°15' E 174°03'713.5
2019-Oct-15 06:00S 41°14' E 174°12'815.1
2019-Oct-15 05:30S 41°14' E 174°22'1019.3
2019-Oct-15 05:00S 41°20' E 174°33'1019.4
2019-Oct-15 04:31S 41°23' E 174°45'713.8
2019-Oct-15 04:01S 41°17' E 174°50'2 4.4
2019-Oct-15 03:29S 41°16' E 174°47'0 0.0
2019-Oct-15 02:59S 41°16' E 174°47'0 0.0
2019-Oct-15 02:29S 41°16' E 174°47'0 0.0
2019-Oct-15 01:59S 41°16' E 174°47'0 0.0
2019-Oct-15 01:29S 41°16' E 174°47'0 0.0
2019-Oct-15 00:59S 41°16' E 174°47'0 0.0
2019-Oct-15 00:29S 41°16' E 174°47'0 0.0
2019-Oct-14 23:59S 41°16' E 174°47'0 0.0
2019-Oct-14 23:29S 41°16' E 174°47'1 1.5
2019-Oct-14 23:00S 41°16' E 174°48'612.3
2019-Oct-14 22:30S 41°22' E 174°50'815.6
2019-Oct-14 22:00S 41°23' E 174°40'816.1
2019-Oct-14 21:30S 41°19' E 174°31'816.1
2019-Oct-14 21:00S 41°15' E 174°22'611.6
2019-Oct-14 20:31S 41°15' E 174°14'612.5
2019-Oct-14 20:00S 41°14' E 174°06'5 9.0
2019-Oct-14 19:28S 41°17' E 174°00'0 0.0
2019-Oct-14 18:58S 41°17' E 174°00'0 0.0
2019-Oct-14 18:28S 41°17' E 174°00'0 0.0
2019-Oct-14 18:01S 41°17' E 174°00'1 2.8
2019-Oct-14 17:31S 41°16' E 174°01'612.7
2019-Oct-14 17:01S 41°13' E 174°09'611.6
2019-Oct-14 16:30S 41°13' E 174°17'713.3
2019-Oct-14 16:00S 41°16' E 174°25'713.8
2019-Oct-14 15:31S 41°20' E 174°33'713.6
2019-Oct-14 15:00S 41°23' E 174°41'714.4
2019-Oct-14 14:30S 41°21' E 174°50'611.2
2019-Oct-14 14:00S 41°16' E 174°47'0 0.4
2019-Oct-14 13:30S 41°16' E 174°47'0 0.0
2019-Oct-14 13:00S 41°16' E 174°47'0 0.0
2019-Oct-14 12:30S 41°16' E 174°47'0 0.0
2019-Oct-14 12:00S 41°16' E 174°47'0 0.0
2019-Oct-14 11:30S 41°16' E 174°47'0 0.0
2019-Oct-14 11:00S 41°16' E 174°47'0 0.0
2019-Oct-14 10:30S 41°16' E 174°47'0 0.0
2019-Oct-14 10:00S 41°16' E 174°47'0 0.0
2019-Oct-14 09:30S 41°16' E 174°47'0 0.0
2019-Oct-14 09:00S 41°16' E 174°47'0 0.0
2019-Oct-14 08:30S 41°16' E 174°47'0 0.0
2019-Oct-14 08:00S 41°16' E 174°47'0 0.2
2019-Oct-14 07:28S 41°16' E 174°47'0 0.0
2019-Oct-14 06:58S 41°16' E 174°47'0 0.0
2019-Oct-14 06:25S 41°16' E 174°47'0 0.0
2019-Oct-14 05:58S 41°16' E 174°47'0 0.0
2019-Oct-14 05:28S 41°16' E 174°47'0 0.0
2019-Oct-14 04:58S 41°16' E 174°47'0 0.0
2019-Oct-14 04:28S 41°16' E 174°47'0 0.0
2019-Oct-14 03:58S 41°16' E 174°47'0 0.0
2019-Oct-14 03:28S 41°16' E 174°47'0 0.0
2019-Oct-14 02:58S 41°16' E 174°47'0 0.0
2019-Oct-14 02:28S 41°16' E 174°47'0 0.0
2019-Oct-14 01:55S 41°16' E 174°47'0 0.0
2019-Oct-14 01:25S 41°16' E 174°47'0 0.0
2019-Oct-14 00:58S 41°16' E 174°47'0 0.0
2019-Oct-14 00:25S 41°16' E 174°47'0 0.0
2019-Oct-13 23:58S 41°16' E 174°47'0 0.0
2019-Oct-13 23:25S 41°16' E 174°47'0 0.0
2019-Oct-13 22:55S 41°16' E 174°47'0 0.0
2019-Oct-13 22:25S 41°16' E 174°47'0 0.0
2019-Oct-13 21:55S 41°16' E 174°47'0 0.0
2019-Oct-13 21:25S 41°16' E 174°47'0 0.0
2019-Oct-13 20:55S 41°16' E 174°47'0 0.0
2019-Oct-13 20:28S 41°16' E 174°47'0 0.0
2019-Oct-13 19:58S 41°16' E 174°47'0 0.0
2019-Oct-13 19:28S 41°16' E 174°47'0 0.0
2019-Oct-13 19:01S 41°16' E 174°47'0 0.0
2019-Oct-13 18:31S 41°16' E 174°47'0 0.0
2019-Oct-13 18:00S 41°16' E 174°47'0 0.0
2019-Oct-13 17:31S 41°16' E 174°47'0 0.0
2019-Oct-13 17:00S 41°16' E 174°47'0 0.1
2019-Oct-13 16:30S 41°16' E 174°47'0 0.3
2019-Oct-13 16:00S 41°16' E 174°47'0 0.0
2019-Oct-13 15:30S 41°16' E 174°47'0 0.2
2019-Oct-13 15:00S 41°16' E 174°47'4 8.2
2019-Oct-13 14:30S 41°19' E 174°51'611.2
2019-Oct-13 14:00S 41°24' E 174°47'713.8
2019-Oct-13 13:30S 41°23' E 174°38'815.5
2019-Oct-13 13:00S 41°19' E 174°29'714.4
2019-Oct-13 12:30S 41°15' E 174°21'713.5
2019-Oct-13 12:00S 41°14' E 174°12'713.6
2019-Oct-13 11:30S 41°15' E 174°03'3 6.0
2019-Oct-13 10:59S 41°17' E 174°00'0 0.0
2019-Oct-13 10:29S 41°17' E 174°00'0 0.5
2019-Oct-13 10:00S 41°17' E 174°00'713.2
2019-Oct-13 09:30S 41°14' E 174°08'612.2
2019-Oct-13 09:00S 41°14' E 174°16'714.4
2019-Oct-13 08:30S 41°16' E 174°25'917.7
2019-Oct-13 08:00S 41°21' E 174°35'917.9
2019-Oct-13 07:30S 41°22' E 174°47'612.6
2019-Oct-13 07:00S 41°16' E 174°49'2 2.7
2019-Oct-13 06:26S 41°16' E 174°47'0 0.0
2019-Oct-13 05:59S 41°16' E 174°47'1 1.8
2019-Oct-13 05:31S 41°16' E 174°48'2 3.0
2019-Oct-13 05:01S 41°16' E 174°50'0 0.9
2019-Oct-13 04:30S 41°16' E 174°49'2 3.0
2019-Oct-13 03:58S 41°16' E 174°47'0 0.0
2019-Oct-13 03:28S 41°16' E 174°47'0 0.0
2019-Oct-13 02:55S 41°16' E 174°47'0 0.0
2019-Oct-13 02:25S 41°16' E 174°47'0 0.0
2019-Oct-13 01:55S 41°16' E 174°47'0 0.0
2019-Oct-13 01:28S 41°16' E 174°47'0 0.0
2019-Oct-13 00:55S 41°16' E 174°47'0 0.0
2019-Oct-13 00:28S 41°16' E 174°47'0 0.0
2019-Oct-12 23:58S 41°16' E 174°47'0 0.0
2019-Oct-12 23:22S 41°16' E 174°47'0 0.0
2019-Oct-12 22:58S 41°16' E 174°47'0 0.0
2019-Oct-12 22:28S 41°16' E 174°47'0 0.0
2019-Oct-12 21:58S 41°16' E 174°47'0 0.0
2019-Oct-12 21:25S 41°16' E 174°47'0 0.0
2019-Oct-12 20:55S 41°16' E 174°47'0 0.0
2019-Oct-12 20:30S 41°16' E 174°47'2 3.6
2019-Oct-12 20:00S 41°16' E 174°50'0 0.3
2019-Oct-12 19:29S 41°16' E 174°50'0 0.0
2019-Oct-12 18:59S 41°16' E 174°50'0 0.0
2019-Oct-12 18:29S 41°16' E 174°50'0 0.0
2019-Oct-12 17:59S 41°16' E 174°50'0 0.0
2019-Oct-12 17:29S 41°16' E 174°50'0 0.0
2019-Oct-12 16:59S 41°16' E 174°50'0 0.0
2019-Oct-12 16:29S 41°16' E 174°50'0 0.0
2019-Oct-12 15:59S 41°16' E 174°50'0 0.0
2019-Oct-12 15:29S 41°16' E 174°50'0 0.0
2019-Oct-12 15:00S 41°16' E 174°50'0 0.0
2019-Oct-12 14:30S 41°16' E 174°50'2 3.6
2019-Oct-12 14:01S 41°16' E 174°47'0 0.3
2019-Oct-12 13:28S 41°16' E 174°47'0 0.0
2019-Oct-12 12:58S 41°16' E 174°47'0 0.1
2019-Oct-12 12:30S 41°16' E 174°47'4 8.9
2019-Oct-12 12:00S 41°19' E 174°51'612.9
2019-Oct-12 11:30S 41°23' E 174°45'917.0
2019-Oct-12 11:00S 41°21' E 174°34'816.2
2019-Oct-12 10:30S 41°16' E 174°25'713.7
2019-Oct-12 10:00S 41°14' E 174°16'713.5
2019-Oct-12 09:30S 41°14' E 174°07'612.3
2019-Oct-12 09:00S 41°17' E 174°00'0 0.0
2019-Oct-12 08:30S 41°17' E 174°00'0 0.0
2019-Oct-12 08:00S 41°17' E 174°00'0 0.0
2019-Oct-12 07:30S 41°17' E 174°00'0 0.2
2019-Oct-12 07:00S 41°17' E 174°00'510.5
2019-Oct-12 06:30S 41°14' E 174°06'713.6
2019-Oct-12 06:01S 41°14' E 174°15'713.7
2019-Oct-12 05:30S 41°15' E 174°24'917.1
2019-Oct-12 05:00S 41°20' E 174°34'917.9
2019-Oct-12 04:30S 41°23' E 174°45'713.3
2019-Oct-12 04:00S 41°18' E 174°51'3 6.5
2019-Oct-12 03:30S 41°16' E 174°47'0 0.0
2019-Oct-12 02:58S 41°16' E 174°47'0 0.0
2019-Oct-12 02:28S 41°16' E 174°47'0 0.0
2019-Oct-12 01:58S 41°16' E 174°47'0 0.0
2019-Oct-12 01:28S 41°16' E 174°47'0 0.0
2019-Oct-12 00:58S 41°16' E 174°47'0 0.0
2019-Oct-12 00:28S 41°16' E 174°47'0 0.0
2019-Oct-11 23:55S 41°16' E 174°47'0 0.0
2019-Oct-11 23:31S 41°16' E 174°47'4 7.3
2019-Oct-11 23:01S 41°18' E 174°51'713.2
2019-Oct-11 22:31S 41°24' E 174°47'816.6
2019-Oct-11 22:00S 41°22' E 174°36'816.2
2019-Oct-11 21:31S 41°17' E 174°27'815.5
2019-Oct-11 21:01S 41°13' E 174°19'815.1
2019-Oct-11 20:30S 41°15' E 174°09'612.4
2019-Oct-11 20:00S 41°16' E 174°01'1 2.3
2019-Oct-11 19:30S 41°17' E 174°00'0 0.0
2019-Oct-11 19:00S 41°17' E 174°00'0 0.0
2019-Oct-11 18:30S 41°17' E 174°00'0 0.0
2019-Oct-11 18:00S 41°17' E 174°00'0 0.8
2019-Oct-11 17:31S 41°17' E 174°01'713.3
2019-Oct-11 17:00S 41°14' E 174°08'713.3
2019-Oct-11 16:30S 41°13' E 174°17'816.0
2019-Oct-11 16:00S 41°17' E 174°27'917.3
2019-Oct-11 15:30S 41°21' E 174°36'917.4
2019-Oct-11 15:00S 41°22' E 174°48'612.1
2019-Oct-11 14:30S 41°16' E 174°48'1 1.8
2019-Oct-11 13:58S 41°16' E 174°47'0 0.0
2019-Oct-11 13:28S 41°16' E 174°47'0 0.0
2019-Oct-11 12:58S 41°16' E 174°47'0 0.0
2019-Oct-11 12:31S 41°16' E 174°47'2 4.9
2019-Oct-11 12:00S 41°16' E 174°50'714.3
2019-Oct-11 11:31S 41°23' E 174°49'917.6
2019-Oct-11 11:00S 41°23' E 174°37'917.9
2019-Oct-11 10:30S 41°18' E 174°27'816.5
2019-Oct-11 10:01S 41°13' E 174°19'815.2
2019-Oct-11 09:30S 41°14' E 174°09'612.8
2019-Oct-11 09:00S 41°16' E 174°01'1 1.8
2019-Oct-11 08:28S 41°17' E 174°00'0 0.0
2019-Oct-11 07:58S 41°17' E 174°00'0 0.0
2019-Oct-11 07:28S 41°17' E 174°00'0 0.2
2019-Oct-11 07:00S 41°17' E 174°00'510.1
2019-Oct-11 06:31S 41°14' E 174°06'713.8
2019-Oct-11 06:01S 41°14' E 174°15'713.7
2019-Oct-11 05:30S 41°15' E 174°24'816.6
2019-Oct-11 05:00S 41°20' E 174°33'917.8
2019-Oct-11 04:31S 41°23' E 174°45'713.9
2019-Oct-11 04:00S 41°18' E 174°51'3 6.1
2019-Oct-11 03:28S 41°16' E 174°47'0 0.0
2019-Oct-11 02:58S 41°16' E 174°47'0 0.0
2019-Oct-11 02:28S 41°16' E 174°47'0 0.0
2019-Oct-11 01:58S 41°16' E 174°47'0 0.0
2019-Oct-11 01:28S 41°16' E 174°47'0 0.0
2019-Oct-11 00:58S 41°16' E 174°47'0 0.0
2019-Oct-11 00:28S 41°16' E 174°47'0 0.0
2019-Oct-10 23:58S 41°16' E 174°47'0 0.0
2019-Oct-10 23:28S 41°16' E 174°47'2 4.3
2019-Oct-10 23:01S 41°16' E 174°50'714.4
2019-Oct-10 22:30S 41°23' E 174°50'917.8
2019-Oct-10 22:00S 41°22' E 174°38'918.2
2019-Oct-10 21:30S 41°18' E 174°27'816.5
2019-Oct-10 21:01S 41°13' E 174°19'815.0
2019-Oct-10 20:30S 41°14' E 174°09'612.6
2019-Oct-10 20:00S 41°16' E 174°01'1 1.9
2019-Oct-10 19:30S 41°17' E 174°00'0 0.0
2019-Oct-10 19:00S 41°17' E 174°00'0 0.0
2019-Oct-10 18:30S 41°17' E 174°00'0 0.0
2019-Oct-10 18:00S 41°17' E 174°00'2 5.0
2019-Oct-10 17:30S 41°15' E 174°02'612.7
2019-Oct-10 17:00S 41°15' E 174°11'714.8
2019-Oct-10 16:30S 41°13' E 174°20'816.9
2019-Oct-10 16:00S 41°18' E 174°30'917.9
2019-Oct-10 15:30S 41°22' E 174°40'816.3
2019-Oct-10 15:00S 41°21' E 174°51'510.8
2019-Oct-10 14:30S 41°16' E 174°47'0 0.1
2019-Oct-10 13:59S 41°16' E 174°47'0 0.0
2019-Oct-10 13:29S 41°16' E 174°47'0 0.0
2019-Oct-10 12:59S 41°16' E 174°47'0 0.4
2019-Oct-10 12:31S 41°16' E 174°47'611.3
2019-Oct-10 12:00S 41°21' E 174°51'816.1
2019-Oct-10 11:30S 41°23' E 174°40'1121.2
2019-Oct-10 11:00S 41°14' E 174°32'1020.3
2019-Oct-10 10:30S 41°05' E 174°27'917.1
2019-Oct-10 10:00S 41°07' E 174°16'714.9
2019-Oct-10 09:30S 41°13' E 174°10'714.6
2019-Oct-10 09:01S 41°16' E 174°01'1 2.3
2019-Oct-10 08:29S 41°17' E 174°00'0 0.0
2019-Oct-10 07:59S 41°17' E 174°00'0 0.0
2019-Oct-10 07:29S 41°17' E 174°00'0 0.3
2019-Oct-10 07:00S 41°17' E 174°01'510.5
2019-Oct-10 06:31S 41°14' E 174°06'713.1
2019-Oct-10 06:01S 41°14' E 174°15'713.1
2019-Oct-10 05:31S 41°15' E 174°24'816.2
2019-Oct-10 05:01S 41°19' E 174°33'917.5
2019-Oct-10 04:31S 41°23' E 174°43'714.3
2019-Oct-10 04:01S 41°19' E 174°51'4 8.0
2019-Oct-10 03:30S 41°16' E 174°47'0 0.0
2019-Oct-10 03:00S 41°16' E 174°47'0 0.0
2019-Oct-10 02:30S 41°16' E 174°47'0 0.0
2019-Oct-10 02:00S 41°16' E 174°47'0 0.0
2019-Oct-10 01:27S 41°16' E 174°47'0 0.0
2019-Oct-10 01:00S 41°16' E 174°47'0 0.0
2019-Oct-10 00:30S 41°16' E 174°47'0 0.0
2019-Oct-10 00:00S 41°16' E 174°47'0 0.0
2019-Oct-09 23:30S 41°16' E 174°47'2 4.6
2019-Oct-09 23:00S 41°16' E 174°50'713.7
2019-Oct-09 22:30S 41°23' E 174°50'816.0
2019-Oct-09 22:00S 41°23' E 174°39'816.7
2019-Oct-09 21:30S 41°19' E 174°29'815.5
2019-Oct-09 21:00S 41°14' E 174°21'714.2
2019-Oct-09 20:30S 41°15' E 174°12'713.7
2019-Oct-09 20:00S 41°15' E 174°03'3 4.9
2019-Oct-09 19:28S 41°17' E 174°00'0 0.0
2019-Oct-09 18:58S 41°17' E 174°00'0 0.0
2019-Oct-09 18:28S 41°17' E 174°00'0 0.0
2019-Oct-09 18:01S 41°17' E 174°00'3 5.2
2019-Oct-09 17:31S 41°15' E 174°02'612.7
2019-Oct-09 17:00S 41°15' E 174°11'714.9
2019-Oct-09 16:30S 41°14' E 174°21'918.6
2019-Oct-09 16:00S 41°18' E 174°31'1019.0
2019-Oct-09 15:30S 41°23' E 174°42'815.8
2019-Oct-09 15:00S 41°18' E 174°51'4 7.1
2019-Oct-09 14:28S 41°16' E 174°47'0 0.0
2019-Oct-09 13:58S 41°16' E 174°47'0 0.0
2019-Oct-09 13:28S 41°16' E 174°47'0 0.0
2019-Oct-09 12:59S 41°16' E 174°47'1 3.1
2019-Oct-09 12:31S 41°16' E 174°49'714.5
2019-Oct-09 12:01S 41°23' E 174°48'918.8
2019-Oct-09 11:31S 41°21' E 174°36'1121.1
2019-Oct-09 11:01S 41°11' E 174°31'918.6
2019-Oct-09 10:31S 41°04' E 174°23'917.2
2019-Oct-09 10:01S 41°09' E 174°14'714.1
2019-Oct-09 09:31S 41°14' E 174°07'611.8
2019-Oct-09 09:00S 41°17' E 174°00'0 0.0
2019-Oct-09 08:30S 41°17' E 174°00'0 0.0
2019-Oct-09 07:59S 41°17' E 174°00'0 0.0
2019-Oct-09 07:30S 41°17' E 174°00'5 9.1
2019-Oct-09 07:00S 41°14' E 174°05'714.7
2019-Oct-09 06:30S 41°10' E 174°13'815.5
2019-Oct-09 06:00S 41°04' E 174°20'815.2
2019-Oct-09 05:30S 41°08' E 174°29'918.1
2019-Oct-09 05:00S 41°16' E 174°34'917.8
2019-Oct-09 04:30S 41°23' E 174°42'815.9
2019-Oct-09 04:00S 41°19' E 174°51'4 8.4
2019-Oct-09 03:30S 41°16' E 174°47'0 0.0
2019-Oct-09 03:00S 41°16' E 174°47'0 0.0
2019-Oct-09 02:30S 41°16' E 174°47'0 0.0
2019-Oct-09 02:00S 41°16' E 174°47'0 0.0
2019-Oct-09 01:30S 41°16' E 174°47'0 0.0
2019-Oct-09 01:00S 41°16' E 174°47'0 0.0
2019-Oct-09 00:30S 41°16' E 174°47'0 0.0
2019-Oct-09 00:00S 41°16' E 174°47'0 0.0
2019-Oct-08 23:30S 41°16' E 174°47'0 0.4
2019-Oct-08 23:00S 41°16' E 174°47'611.3
2019-Oct-08 22:30S 41°21' E 174°51'714.6
2019-Oct-08 22:01S 41°23' E 174°41'918.4
2019-Oct-08 21:30S 41°19' E 174°30'917.9
2019-Oct-08 21:00S 41°14' E 174°21'714.9
2019-Oct-08 20:30S 41°15' E 174°11'713.3
2019-Oct-08 20:00S 41°15' E 174°02'2 4.2
2019-Oct-08 19:29S 41°17' E 174°00'0 0.0
2019-Oct-08 18:59S 41°17' E 174°00'0 0.0
2019-Oct-08 18:29S 41°17' E 174°00'0 0.0
2019-Oct-08 18:00S 41°17' E 174°00'3 5.4
2019-Oct-08 17:31S 41°15' E 174°02'612.4
2019-Oct-08 17:01S 41°15' E 174°11'714.3
2019-Oct-08 16:31S 41°13' E 174°20'816.2
2019-Oct-08 16:00S 41°18' E 174°29'816.3
2019-Oct-08 15:31S 41°22' E 174°38'917.0
2019-Oct-08 15:01S 41°22' E 174°49'612.0
2019-Oct-08 14:31S 41°16' E 174°47'0 0.3
2019-Oct-08 14:00S 41°16' E 174°47'0 0.0
2019-Oct-08 13:30S 41°16' E 174°47'0 0.0
2019-Oct-08 13:00S 41°16' E 174°47'0 0.7
2019-Oct-08 12:31S 41°16' E 174°47'612.2
2019-Oct-08 12:01S 41°22' E 174°50'917.7
2019-Oct-08 11:30S 41°23' E 174°39'1121.2
2019-Oct-08 11:00S 41°13' E 174°32'1019.9
2019-Oct-08 10:31S 41°05' E 174°26'815.9
2019-Oct-08 10:00S 41°07' E 174°16'815.2
2019-Oct-08 09:31S 41°13' E 174°10'714.6
2019-Oct-08 09:00S 41°16' E 174°01'1 1.6
2019-Oct-08 08:30S 41°17' E 174°00'0 0.0
2019-Oct-08 08:00S 41°17' E 174°00'0 0.0
2019-Oct-08 07:30S 41°17' E 174°00'3 5.7
2019-Oct-08 07:00S 41°15' E 174°03'714.9
2019-Oct-08 06:30S 41°12' E 174°12'815.1
2019-Oct-08 06:00S 41°06' E 174°18'815.4
2019-Oct-08 05:31S 41°05' E 174°28'918.2
2019-Oct-08 05:00S 41°14' E 174°32'918.3
2019-Oct-08 04:31S 41°22' E 174°38'918.8
2019-Oct-08 04:00S 41°21' E 174°50'611.4
2019-Oct-08 03:30S 41°16' E 174°47'0 0.0
2019-Oct-08 03:00S 41°16' E 174°47'0 0.0
2019-Oct-08 02:30S 41°16' E 174°47'0 0.0
2019-Oct-08 02:00S 41°16' E 174°47'0 0.0
2019-Oct-08 01:30S 41°16' E 174°47'0 0.0
2019-Oct-08 01:00S 41°16' E 174°47'0 0.0
2019-Oct-08 00:30S 41°16' E 174°47'0 0.0
2019-Oct-08 00:00S 41°16' E 174°47'0 0.0
2019-Oct-07 23:30S 41°16' E 174°47'3 5.8
2019-Oct-07 23:00S 41°17' E 174°51'714.2
2019-Oct-07 22:30S 41°24' E 174°49'815.2
2019-Oct-07 22:00S 41°23' E 174°39'815.9
2019-Oct-07 21:30S 41°19' E 174°29'816.0
2019-Oct-07 21:00S 41°14' E 174°21'714.1
2019-Oct-07 20:30S 41°15' E 174°11'713.6
2019-Oct-07 20:00S 41°15' E 174°02'3 4.8
2019-Oct-07 19:29S 41°17' E 174°00'0 0.0
2019-Oct-07 18:59S 41°17' E 174°00'0 0.0
2019-Oct-07 18:29S 41°17' E 174°00'0 0.0
2019-Oct-07 18:00S 41°17' E 174°00'3 6.1
2019-Oct-07 17:30S 41°15' E 174°03'714.6
2019-Oct-07 17:00S 41°12' E 174°12'714.7
2019-Oct-07 16:30S 41°06' E 174°18'815.2
2019-Oct-07 16:01S 41°05' E 174°28'918.0
2019-Oct-07 15:31S 41°13' E 174°32'918.2
2019-Oct-07 15:01S 41°22' E 174°38'917.8
2019-Oct-07 14:31S 41°22' E 174°49'612.2
2019-Oct-07 14:00S 41°16' E 174°47'0 0.2
2019-Oct-07 13:30S 41°16' E 174°47'0 0.0
2019-Oct-07 13:00S 41°16' E 174°47'0 0.0
2019-Oct-07 12:30S 41°16' E 174°47'0 0.0
2019-Oct-07 12:00S 41°16' E 174°47'0 0.0
2019-Oct-07 11:30S 41°16' E 174°47'0 0.0
2019-Oct-07 11:00S 41°16' E 174°47'0 0.0
2019-Oct-07 10:27S 41°16' E 174°47'0 0.0
2019-Oct-07 10:00S 41°16' E 174°47'0 0.0
2019-Oct-07 09:30S 41°16' E 174°47'0 0.0
2019-Oct-07 09:00S 41°16' E 174°47'0 0.0
2019-Oct-07 08:30S 41°16' E 174°47'0 0.0
2019-Oct-07 08:00S 41°16' E 174°47'  

Dump ship's entire track history